Time;durP1;ratioP1;P1;durP2;ratioP2;P2;SDS_P1;SDS_P2;PMS_P1;PMS_P2;Temp;Humidity;BMP_temperature;BMP_pressure;BME280_temperature;BME280_humidity;BME280_pressure;Samples;Min_cycle;Max_cycle;Signal;HPM_P1;HPM_P2
2022/06/04 00:02:06;;;;;;;7.13;3.30;;;;;;;;;;5012845;28;20058;-85
2022/06/04 00:04:32;;;;;;;5.82;3.10;;;;;;;;;;5003038;28;20024;-86
2022/06/04 00:06:59;;;;;;;7.32;3.35;;;;;;;;;;4995371;28;20364;-85
2022/06/04 00:09:25;;;;;;;4.45;3.22;;;;;;;;;;4995375;28;20434;-84
2022/06/04 00:17:22;;;;;;;9.73;3.10;;;;;;;;;;5012973;28;20072;-87
2022/06/04 00:19:48;;;;;;;5.13;3.40;;;;;;;;;;5012672;28;20475;-87
2022/06/04 00:22:15;;;;;;;5.50;3.25;;;;;;;;;;5009317;28;20383;-86
2022/06/04 00:24:41;;;;;;;5.75;3.28;;;;;;;;;;4984620;28;20029;-87
2022/06/04 00:27:13;;;;;;;5.35;3.20;;;;;;;;;;5016209;28;20022;-86
2022/06/04 00:29:39;;;;;;;4.78;3.28;;;;;;;;;;5016617;28;20480;-84
2022/06/04 00:32:06;;;;;;;6.18;3.13;;;;;;;;;;5014917;28;20034;-86
2022/06/04 00:34:32;;;;;;;7.38;3.47;;;;;;;;;;5016331;28;20018;-85
2022/06/04 00:36:59;;;;;;;14.68;3.70;;;;;;;;;;5005510;28;20460;-85
2022/06/04 00:39:26;;;;;;;5.35;3.90;;;;;;;;;;4996620;28;20098;-85
2022/06/04 00:41:56;;;;;;;4.32;2.80;;;;;;;;;;4997037;28;20049;-85
2022/06/04 00:44:31;;;;;;;4.88;3.30;;;;;;;;;;4997679;28;20030;-86
2022/06/04 00:47:13;;;;;;;7.93;3.10;;;;;;;;;;5009798;28;20037;-86
2022/06/04 00:49:39;;;;;;;7.18;3.35;;;;;;;;;;5016679;28;20083;-86
2022/06/04 00:52:13;;;;;;;6.47;3.67;;;;;;;;;;5015267;28;20069;-86
2022/06/04 00:54:40;;;;;;;5.95;3.10;;;;;;;;;;5014457;28;20025;-85
2022/06/04 00:57:06;;;;;;;5.45;3.40;;;;;;;;;;5012862;28;20105;-84
2022/06/04 00:59:32;;;;;;;5.60;3.65;;;;;;;;;;4998506;28;20026;-86
2022/06/04 01:02:04;;;;;;;4.63;2.95;;;;;;;;;;4998127;28;20045;-85
2022/06/04 01:04:48;;;;;;;13.55;4.30;;;;;;;;;;5015489;28;20061;-86
2022/06/04 01:07:20;;;;;;;6.53;3.60;;;;;;;;;;4993478;28;20146;-86
2022/06/04 01:09:52;;;;;;;7.57;3.65;;;;;;;;;;4996427;28;20034;-86
2022/06/04 01:12:30;;;;;;;5.43;3.28;;;;;;;;;;4995698;28;20038;-85
2022/06/04 01:15:08;;;;;;;5.90;3.50;;;;;;;;;;4997813;28;20029;-86
2022/06/04 01:17:34;;;;;;;5.45;3.45;;;;;;;;;;5012491;28;20038;-87
2022/06/04 01:20:00;;;;;;;5.68;3.50;;;;;;;;;;4996323;28;20506;-86
2022/06/04 01:22:38;;;;;;;6.15;3.67;;;;;;;;;;4996316;28;20030;-86
2022/06/04 01:25:23;;;;;;;5.95;3.53;;;;;;;;;;5001482;28;20501;-88
2022/06/04 01:27:56;;;;;;;11.43;3.55;;;;;;;;;;5015780;28;20026;-87
2022/06/04 01:30:25;;;;;;;4.60;3.70;;;;;;;;;;5013398;28;20155;-84
2022/06/04 01:32:57;;;;;;;5.70;4.00;;;;;;;;;;5013089;28;20033;-86
2022/06/04 01:35:23;;;;;;;5.05;3.45;;;;;;;;;;5013357;28;20061;-83
2022/06/04 01:37:49;;;;;;;5.32;3.58;;;;;;;;;;5015027;28;20029;-86
2022/06/04 01:43:04;;;;;;;6.57;4.00;;;;;;;;;;5015632;28;20180;-87
2022/06/04 01:45:31;;;;;;;5.80;3.70;;;;;;;;;;5015555;28;20033;-87
2022/06/04 01:47:58;;;;;;;7.97;3.85;;;;;;;;;;5013486;28;20030;-87
2022/06/04 01:50:27;;;;;;;6.03;4.05;;;;;;;;;;5010094;28;20022;-87
2022/06/04 01:52:54;;;;;;;5.80;3.58;;;;;;;;;;5014864;28;20034;-87
2022/06/04 01:55:22;;;;;;;11.18;4.10;;;;;;;;;;4996551;28;20033;-88
2022/06/04 01:58:09;;;;;;;8.85;4.30;;;;;;;;;;5013614;28;20030;-87
2022/06/04 02:00:38;;;;;;;7.22;4.20;;;;;;;;;;5010358;28;20022;-87
2022/06/04 02:03:07;;;;;;;5.82;3.85;;;;;;;;;;4956608;29;20035;-85
2022/06/04 02:05:42;;;;;;;6.28;3.75;;;;;;;;;;4971501;28;20042;-86
2022/06/04 02:08:09;;;;;;;6.40;4.18;;;;;;;;;;4964013;28;20014;-84
2022/06/04 02:10:38;;;;;;;6.50;4.50;;;;;;;;;;4989348;28;20480;-86
2022/06/04 02:13:09;;;;;;;6.35;4.70;;;;;;;;;;4975580;28;20484;-82
2022/06/04 02:15:40;;;;;;;7.03;4.28;;;;;;;;;;4973479;28;20098;-87
2022/06/04 02:18:09;;;;;;;5.80;4.60;;;;;;;;;;4975432;28;20029;-86
2022/06/04 02:20:35;;;;;;;9.15;4.50;;;;;;;;;;4974596;28;20365;-86
2022/06/04 02:23:02;;;;;;;8.60;4.70;;;;;;;;;;4974127;28;20034;-86
2022/06/04 02:25:30;;;;;;;6.18;4.60;;;;;;;;;;4975658;28;20033;-86
2022/06/04 02:27:56;;;;;;;11.30;5.10;;;;;;;;;;4975773;28;20106;-83
2022/06/04 02:30:25;;;;;;;7.43;5.22;;;;;;;;;;4973860;28;20029;-85
2022/06/04 02:33:23;;;;;;;7.07;4.78;;;;;;;;;;4974854;28;20506;-85
2022/06/04 02:35:49;;;;;;;6.93;5.18;;;;;;;;;;4915341;29;20044;-85
2022/06/04 02:38:22;;;;;;;7.93;5.32;;;;;;;;;;4915577;29;20035;-85
2022/06/04 02:40:53;;;;;;;12.30;5.78;;;;;;;;;;4913878;29;20032;-86
2022/06/04 02:43:22;;;;;;;12.73;5.68;;;;;;;;;;4920298;29;20151;-86
2022/06/04 02:45:57;;;;;;;8.48;5.82;;;;;;;;;;4933992;29;20098;-86
2022/06/04 02:48:29;;;;;;;7.18;4.90;;;;;;;;;;4934542;29;20063;-86
2022/06/04 02:51:05;;;;;;;8.13;5.30;;;;;;;;;;4920047;29;20036;-87
2022/06/04 02:53:33;;;;;;;7.43;5.03;;;;;;;;;;4915066;29;20099;-86
2022/06/04 02:56:04;;;;;;;8.65;5.57;;;;;;;;;;4899710;29;20111;-85
2022/06/04 02:58:31;;;;;;;10.13;6.00;;;;;;;;;;4899799;29;20047;-85
2022/06/04 03:00:58;;;;;;;7.20;5.85;;;;;;;;;;4917232;29;20063;-86
2022/06/04 03:03:25;;;;;;;10.90;6.43;;;;;;;;;;4925321;29;20367;-85
2022/06/04 03:05:53;;;;;;;10.77;6.22;;;;;;;;;;4932203;29;20043;-86
2022/06/04 03:08:19;;;;;;;11.82;6.47;;;;;;;;;;4915532;29;20081;-85
2022/06/04 03:10:46;;;;;;;10.35;6.40;;;;;;;;;;4915272;28;20039;-84
2022/06/04 03:13:12;;;;;;;8.20;6.57;;;;;;;;;;4976377;28;20397;-84
2022/06/04 03:15:38;;;;;;;9.20;6.60;;;;;;;;;;4973762;28;20034;-83
2022/06/04 03:18:04;;;;;;;10.20;6.70;;;;;;;;;;4974690;28;20030;-84
2022/06/04 03:20:30;;;;;;;12.98;6.93;;;;;;;;;;4974728;28;20050;-86
2022/06/04 03:22:56;;;;;;;9.82;7.25;;;;;;;;;;4975736;28;20090;-85
2022/06/04 03:25:23;;;;;;;11.77;7.00;;;;;;;;;;4973102;28;20133;-80
2022/06/04 03:27:50;;;;;;;9.93;7.18;;;;;;;;;;4989366;28;20073;-85
2022/06/04 03:30:16;;;;;;;10.23;6.75;;;;;;;;;;4992923;28;20065;-83
2022/06/04 03:32:42;;;;;;;9.50;6.25;;;;;;;;;;4990384;28;20488;-86
2022/06/04 03:35:09;;;;;;;9.88;7.00;;;;;;;;;;4983076;28;20031;-85
2022/06/04 03:37:35;;;;;;;10.38;6.53;;;;;;;;;;4988278;28;20119;-86
2022/06/04 03:40:02;;;;;;;11.38;6.78;;;;;;;;;;4994135;28;20053;-86
2022/06/04 03:42:28;;;;;;;10.63;7.28;;;;;;;;;;4993787;28;20080;-83
2022/06/04 03:44:54;;;;;;;10.05;7.90;;;;;;;;;;4989342;28;20380;-86
2022/06/04 03:47:20;;;;;;;16.40;9.18;;;;;;;;;;4992537;28;20109;-83
2022/06/04 03:49:46;;;;;;;11.82;8.95;;;;;;;;;;4993553;28;20431;-86
2022/06/04 03:52:14;;;;;;;11.00;8.55;;;;;;;;;;4995287;28;20510;-82
2022/06/04 03:54:52;;;;;;;13.57;8.57;;;;;;;;;;4991540;28;20088;-85
2022/06/04 04:00:04;;;;;;;10.98;8.23;;;;;;;;;;4978917;28;20045;-85
2022/06/04 04:02:30;;;;;;;10.98;7.95;;;;;;;;;;4993165;28;20054;-83
2022/06/04 04:04:56;;;;;;;10.57;7.57;;;;;;;;;;5002585;28;20068;-82
2022/06/04 04:07:22;;;;;;;11.40;7.32;;;;;;;;;;4993824;28;20042;-86
2022/06/04 04:09:48;;;;;;;10.32;7.53;;;;;;;;;;4998491;28;20030;-87
2022/06/04 04:12:15;;;;;;;12.50;7.88;;;;;;;;;;4999295;28;20091;-86
2022/06/04 04:14:41;;;;;;;13.80;8.23;;;;;;;;;;4999289;28;20053;-85
2022/06/04 04:20:20;;;;;;;13.13;7.93;;;;;;;;;;5276190;23;20414;-85
2022/06/04 04:22:46;;;;;;;19.50;8.27;;;;;;;;;;4995688;28;20034;-85
2022/06/04 04:25:14;;;;;;;13.93;8.80;;;;;;;;;;4995401;28;20027;-86
2022/06/04 04:27:40;;;;;;;10.35;8.70;;;;;;;;;;4995505;28;20030;-86
2022/06/04 04:30:07;;;;;;;17.60;9.18;;;;;;;;;;4997923;28;20030;-85
2022/06/04 04:32:33;;;;;;;12.75;8.60;;;;;;;;;;5016060;28;20041;-85
2022/06/04 04:35:00;;;;;;;15.43;8.73;;;;;;;;;;5016136;28;20025;-85
2022/06/04 04:37:26;;;;;;;13.77;9.02;;;;;;;;;;5016387;28;20026;-86
2022/06/04 04:39:52;;;;;;;12.15;9.02;;;;;;;;;;5015963;28;20018;-87
2022/06/04 04:42:18;;;;;;;13.52;9.07;;;;;;;;;;4999341;28;20054;-85
2022/06/04 04:44:44;;;;;;;11.48;9.00;;;;;;;;;;5007115;28;20038;-85
2022/06/04 04:47:11;;;;;;;14.15;9.88;;;;;;;;;;5015651;28;20514;-86
2022/06/04 04:49:37;;;;;;;16.00;9.75;;;;;;;;;;5006755;28;20046;-83
2022/06/04 04:52:03;;;;;;;11.20;8.40;;;;;;;;;;5012022;28;20145;-84
2022/06/04 04:54:29;;;;;;;13.10;9.57;;;;;;;;;;5014043;28;20421;-85
2022/06/04 04:56:55;;;;;;;14.27;9.43;;;;;;;;;;5015121;28;20025;-86
2022/06/04 04:59:21;;;;;;;14.20;9.32;;;;;;;;;;5011204;28;20038;-84
2022/06/04 05:01:47;;;;;;;12.40;8.95;;;;;;;;;;4998618;28;20023;-82
2022/06/04 05:04:14;;;;;;;10.93;9.13;;;;;;;;;;5013873;28;20125;-81
2022/06/04 05:06:40;;;;;;;14.88;10.50;;;;;;;;;;4997465;28;20023;-81
2022/06/04 05:09:06;;;;;;;12.40;9.55;;;;;;;;;;4994945;28;20381;-82
2022/06/04 05:11:33;;;;;;;13.88;10.05;;;;;;;;;;4996032;28;20068;-82
2022/06/04 05:14:00;;;;;;;15.98;9.50;;;;;;;;;;5005989;28;20041;-86
2022/06/04 05:16:30;;;;;;;15.80;10.45;;;;;;;;;;5015094;28;20021;-84
2022/06/04 05:18:56;;;;;;;14.20;9.55;;;;;;;;;;5013180;28;20030;-86
2022/06/04 05:21:27;;;;;;;13.95;9.32;;;;;;;;;;5003974;28;20053;-84
2022/06/04 05:23:54;;;;;;;10.52;8.45;;;;;;;;;;4995182;28;20027;-85
2022/06/04 05:26:21;;;;;;;10.02;8.57;;;;;;;;;;5007326;28;20057;-84
2022/06/04 05:28:47;;;;;;;12.93;8.73;;;;;;;;;;5003165;28;20022;-83
2022/06/04 05:31:13;;;;;;;11.75;8.70;;;;;;;;;;4994441;28;20034;-82
2022/06/04 05:33:39;;;;;;;14.02;8.57;;;;;;;;;;4986165;28;20030;-83
2022/06/04 05:36:06;;;;;;;18.23;8.25;;;;;;;;;;4991702;28;20025;-78
2022/06/04 05:38:34;;;;;;;10.05;7.15;;;;;;;;;;4998120;28;20030;-77
2022/06/04 05:41:04;;;;;;;9.98;7.30;;;;;;;;;;4988497;28;20034;-82
2022/06/04 05:43:30;;;;;;;13.55;8.05;;;;;;;;;;5018409;28;20153;-76
2022/06/04 05:45:57;;;;;;;13.30;7.85;;;;;;;;;;5005722;28;20442;-78
2022/06/04 05:48:23;;;;;;;11.32;7.85;;;;;;;;;;4984835;28;20030;-76
2022/06/04 05:50:53;;;;;;;11.60;7.30;;;;;;;;;;4990782;28;20024;-79
2022/06/04 05:53:19;;;;;;;12.05;7.30;;;;;;;;;;4987685;28;20043;-79
2022/06/04 05:55:46;;;;;;;15.52;7.18;;;;;;;;;;4994487;28;20093;-87
2022/06/04 05:58:12;;;;;;;15.23;7.57;;;;;;;;;;4986485;28;20062;-83
2022/06/04 06:00:38;;;;;;;11.13;8.15;;;;;;;;;;5006287;28;20418;-86
2022/06/04 06:03:04;;;;;;;24.50;10.15;;;;;;;;;;5009033;28;20087;-86
2022/06/04 06:05:31;;;;;;;19.10;9.05;;;;;;;;;;4999783;28;20026;-85
2022/06/04 06:07:58;;;;;;;13.88;8.88;;;;;;;;;;4992061;28;20122;-78
2022/06/04 06:10:24;;;;;;;12.48;7.70;;;;;;;;;;4987857;28;20039;-77
2022/06/04 06:12:50;;;;;;;16.17;8.32;;;;;;;;;;4986007;28;20491;-86
2022/06/04 06:15:16;;;;;;;10.88;7.57;;;;;;;;;;4996641;28;20029;-80
2022/06/04 06:17:42;;;;;;;13.82;7.75;;;;;;;;;;4995482;28;20109;-82
2022/06/04 06:20:09;;;;;;;13.05;8.20;;;;;;;;;;5002146;28;20069;-78
2022/06/04 06:22:36;;;;;;;11.82;7.97;;;;;;;;;;5003152;28;20025;-75
2022/06/04 06:25:05;;;;;;;14.85;7.65;;;;;;;;;;4990316;28;20049;-77
2022/06/04 06:27:31;;;;;;;11.88;8.05;;;;;;;;;;4985076;28;20019;-78
2022/06/04 06:29:58;;;;;;;10.43;7.80;;;;;;;;;;4986248;28;20027;-79
2022/06/04 06:32:24;;;;;;;23.83;8.38;;;;;;;;;;4995703;28;20026;-79
2022/06/04 06:34:51;;;;;;;11.80;8.73;;;;;;;;;;4994615;28;20108;-84
2022/06/04 06:37:17;;;;;;;10.90;7.88;;;;;;;;;;4978031;28;20053;-82
2022/06/04 06:39:43;;;;;;;10.32;7.80;;;;;;;;;;4996074;28;20036;-76
2022/06/04 06:42:09;;;;;;;17.77;8.23;;;;;;;;;;4988359;28;20026;-79
2022/06/04 06:44:35;;;;;;;9.48;8.10;;;;;;;;;;4981337;28;20059;-75
2022/06/04 06:47:01;;;;;;;16.05;8.82;;;;;;;;;;4984183;28;20050;-75
2022/06/04 06:49:29;;;;;;;26.63;9.52;;;;;;;;;;4975342;28;20085;-75
2022/06/04 06:51:56;;;;;;;15.05;8.10;;;;;;;;;;4980700;28;20027;-75
2022/06/04 06:54:24;;;;;;;12.88;8.10;;;;;;;;;;4987111;28;20034;-76
2022/06/04 06:56:51;;;;;;;13.55;8.60;;;;;;;;;;4993348;28;20045;-76
2022/06/04 06:59:20;;;;;;;9.02;7.55;;;;;;;;;;4993588;28;20037;-75
2022/06/04 07:01:48;;;;;;;13.27;8.60;;;;;;;;;;4994052;28;20472;-74
2022/06/04 07:04:14;;;;;;;11.25;8.18;;;;;;;;;;4993702;28;20030;-73
2022/06/04 07:06:42;;;;;;;14.15;8.38;;;;;;;;;;4993612;28;20034;-74
2022/06/04 07:09:15;;;;;;;10.77;7.97;;;;;;;;;;4993749;28;20077;-72
2022/06/04 07:11:41;;;;;;;;;;;;;;;;;;4988061;28;20031;-76
2022/06/04 07:14:07;;;;;;;14.88;8.40;;;;;;;;;;4993771;28;19941;-79
2022/06/04 07:16:33;;;;;;;13.70;8.15;;;;;;;;;;4990772;28;20030;-79
2022/06/04 07:19:00;;;;;;;12.10;7.90;;;;;;;;;;4993420;28;20108;-74
2022/06/04 07:21:26;;;;;;;11.00;8.10;;;;;;;;;;4992108;28;20069;-79
2022/06/04 07:23:53;;;;;;;12.35;7.93;;;;;;;;;;4993914;28;20018;-74
2022/06/04 07:26:20;;;;;;;12.23;7.93;;;;;;;;;;4993724;28;20033;-75
2022/06/04 07:28:46;;;;;;;13.80;7.80;;;;;;;;;;4993121;28;20485;-74
2022/06/04 07:31:13;;;;;;;17.55;8.60;;;;;;;;;;4992779;28;20088;-73
2022/06/04 07:33:43;;;;;;;75.10;10.95;;;;;;;;;;4993447;28;20040;-75
2022/06/04 07:36:14;;;;;;;12.68;8.35;;;;;;;;;;4993634;28;20019;-75
2022/06/04 07:38:40;;;;;;;10.57;7.28;;;;;;;;;;4992423;28;20026;-74
2022/06/04 07:41:06;;;;;;;23.15;9.50;;;;;;;;;;4993514;28;20361;-74
2022/06/04 07:43:32;;;;;;;32.17;12.07;;;;;;;;;;4993928;28;20088;-76
2022/06/04 07:45:58;;;;;;;12.23;7.47;;;;;;;;;;4993556;28;20105;-75
2022/06/04 07:48:25;;;;;;;15.30;8.20;;;;;;;;;;4992715;28;20484;-74
2022/06/04 07:50:51;;;;;;;14.52;7.75;;;;;;;;;;4992885;28;20068;-74
2022/06/04 07:53:17;;;;;;;73.03;25.65;;;;;;;;;;4993297;28;20039;-74
2022/06/04 07:55:43;;;;;;;15.38;10.70;;;;;;;;;;4993402;28;20089;-74
2022/06/04 07:58:10;;;;;;;21.83;11.52;;;;;;;;;;4993068;28;20030;-76
2022/06/04 08:00:38;;;;;;;17.58;7.85;;;;;;;;;;4992243;28;20473;-75
2022/06/04 08:03:05;;;;;;;9.60;6.68;;;;;;;;;;4992741;28;20558;-73
2022/06/04 08:05:31;;;;;;;34.55;9.45;;;;;;;;;;4992980;28;20030;-73
2022/06/04 08:07:57;;;;;;;31.42;8.55;;;;;;;;;;4982080;28;20031;-76
2022/06/04 08:10:23;;;;;;;109.57;16.33;;;;;;;;;;4975199;28;20031;-75
2022/06/04 08:12:54;;;;;;;50.20;10.77;;;;;;;;;;4992592;28;20125;-74
2022/06/04 08:15:21;;;;;;;55.65;9.05;;;;;;;;;;4990550;28;20184;-78
2022/06/04 08:17:49;;;;;;;117.43;14.65;;;;;;;;;;4979014;28;20042;-81
2022/06/04 08:20:16;;;;;;;76.82;10.23;;;;;;;;;;4983039;28;20050;-84
2022/06/04 08:22:42;;;;;;;28.95;7.80;;;;;;;;;;4982488;28;20078;-82
2022/06/04 08:25:08;;;;;;;35.55;7.75;;;;;;;;;;4981454;28;20026;-82
2022/06/04 08:27:34;;;;;;;17.75;6.80;;;;;;;;;;4988125;28;20022;-79
2022/06/04 08:30:00;;;;;;;26.92;6.85;;;;;;;;;;4995377;28;20042;-80
2022/06/04 08:32:26;;;;;;;25.92;7.15;;;;;;;;;;4989063;28;20054;-79
2022/06/04 08:34:53;;;;;;;26.17;12.57;;;;;;;;;;4987496;28;20357;-79
2022/06/04 08:37:19;;;;;;;22.95;8.68;;;;;;;;;;4984991;28;20030;-85
2022/06/04 08:39:45;;;;;;;16.30;7.82;;;;;;;;;;4992402;28;20038;-79
2022/06/04 08:42:11;;;;;;;11.93;5.90;;;;;;;;;;4979405;28;20101;-79
2022/06/04 08:44:46;;;;;;;20.13;7.22;;;;;;;;;;4993113;28;20540;-76
2022/06/04 08:47:19;;;;;;;30.45;9.55;;;;;;;;;;5002475;28;20038;-75
2022/06/04 08:49:51;;;;;;;21.42;7.30;;;;;;;;;;5006500;28;20050;-73
2022/06/04 08:52:19;;;;;;;17.63;7.00;;;;;;;;;;4995642;28;20046;-78
2022/06/04 08:57:35;;;;;;;16.95;7.28;;;;;;;;;;4986071;28;20563;-81
2022/06/04 09:00:07;;;;;;;16.40;6.95;;;;;;;;;;4986641;28;20026;-74
2022/06/04 09:02:54;;;;;;;14.13;6.55;;;;;;;;;;4986539;28;20038;-78
2022/06/04 09:05:35;;;;;;;17.30;7.07;;;;;;;;;;4974830;28;20464;-74
2022/06/04 09:08:05;;;;;;;8.90;6.05;;;;;;;;;;4989452;28;20030;-78
2022/06/04 09:10:33;;;;;;;15.90;7.00;;;;;;;;;;4978830;28;20023;-86
2022/06/04 09:13:03;;;;;;;21.70;8.57;;;;;;;;;;4987661;28;20045;-83
2022/06/04 09:15:31;;;;;;;33.28;9.10;;;;;;;;;;4987687;28;20030;-81
2022/06/04 09:18:04;;;;;;;39.67;9.35;;;;;;;;;;4981871;28;20030;-83
2022/06/04 09:20:50;;;;;;;9.55;6.35;;;;;;;;;;4992900;28;20042;-84
2022/06/04 09:23:22;;;;;;;14.23;9.13;;;;;;;;;;4980408;28;20027;-83
2022/06/04 09:26:00;;;;;;;17.50;8.50;;;;;;;;;;4980597;28;20113;-91
2022/06/04 09:28:45;;;;;;;18.65;8.10;;;;;;;;;;4981267;28;20053;-84
2022/06/04 09:31:14;;;;;;;14.30;7.20;;;;;;;;;;4990025;28;20090;-87
2022/06/04 09:33:46;;;;;;;15.88;7.47;;;;;;;;;;4985586;28;20041;-88
2022/06/04 09:36:15;;;;;;;14.07;6.85;;;;;;;;;;5017579;28;20121;-83
2022/06/04 09:38:51;;;;;;;12.05;7.15;;;;;;;;;;4987246;28;20109;-85
2022/06/04 09:41:19;;;;;;;12.45;7.28;;;;;;;;;;5003341;28;20027;-88
2022/06/04 09:43:47;;;;;;;17.55;7.18;;;;;;;;;;4986106;28;20030;-87
2022/06/04 09:46:13;;;;;;;10.55;6.80;;;;;;;;;;4986494;28;20563;-82
2022/06/04 09:48:43;;;;;;;14.15;6.65;;;;;;;;;;4996073;28;20120;-90
2022/06/04 09:51:18;;;;;;;11.20;6.82;;;;;;;;;;4981134;28;20026;-92
2022/06/04 09:53:48;;;;;;;10.02;6.97;;;;;;;;;;4996837;28;20089;-89
2022/06/04 09:56:29;;;;;;;12.95;6.95;;;;;;;;;;4996553;28;20018;-90
2022/06/04 09:58:55;;;;;;;13.23;6.97;;;;;;;;;;4997621;28;20031;-85
2022/06/04 10:01:24;;;;;;;11.15;7.00;;;;;;;;;;4986785;28;20050;-89
2022/06/04 10:04:02;;;;;;;13.73;6.80;;;;;;;;;;4988226;28;20105;-92
2022/06/04 10:06:28;;;;;;;12.02;6.78;;;;;;;;;;4987953;28;20061;-86
2022/06/04 10:11:52;;;;;;;15.13;7.65;;;;;;;;;;4987547;28;20120;-88
2022/06/04 10:14:32;;;;;;;11.70;6.80;;;;;;;;;;4993971;28;20516;-92
2022/06/04 10:16:58;;;;;;;13.05;7.10;;;;;;;;;;4992918;28;20054;-87
2022/06/04 10:19:25;;;;;;;22.15;8.30;;;;;;;;;;4991805;28;20112;-85
2022/06/04 10:22:06;;;;;;;12.38;7.05;;;;;;;;;;4989045;28;20056;-91
2022/06/04 10:24:33;;;;;;;15.07;7.40;;;;;;;;;;4992578;28;20547;-91
2022/06/04 10:27:20;;;;;;;10.02;6.78;;;;;;;;;;5005567;28;20088;-92
2022/06/04 10:29:49;;;;;;;11.32;7.50;;;;;;;;;;4991560;28;20558;-88
2022/06/04 10:32:15;;;;;;;16.92;8.32;;;;;;;;;;4991738;28;20108;-91
2022/06/04 10:34:42;;;;;;;8.95;6.63;;;;;;;;;;4993100;28;20141;-90
2022/06/04 10:37:27;;;;;;;11.10;7.70;;;;;;;;;;4992042;28;20030;-87
2022/06/04 10:39:53;;;;;;;66.97;58.95;;;;;;;;;;4993960;28;20026;-91
2022/06/04 10:42:19;;;;;;;21.38;14.45;;;;;;;;;;4983108;28;20077;-86
2022/06/04 10:44:48;;;;;;;15.43;8.15;;;;;;;;;;4999486;28;20029;-88
2022/06/04 10:47:28;;;;;;;22.48;8.40;;;;;;;;;;4994067;28;20357;-88
2022/06/04 10:50:00;;;;;;;18.23;8.07;;;;;;;;;;4989695;28;20030;-86
2022/06/04 10:52:31;;;;;;;13.13;8.07;;;;;;;;;;4992649;28;20100;-90
2022/06/04 10:55:19;;;;;;;12.07;7.45;;;;;;;;;;5001497;28;20488;-89
2022/06/04 10:58:04;;;;;;;15.68;8.50;;;;;;;;;;5018707;28;20042;-90
2022/06/04 11:00:36;;;;;;;10.55;7.88;;;;;;;;;;5000952;28;20120;-91
2022/06/04 11:03:05;;;;;;;12.87;9.33;;;;;;;;;;4992054;28;20073;-90
2022/06/04 11:05:45;;;;;;;14.90;7.93;;;;;;;;;;4982452;28;20081;-89
2022/06/04 11:08:11;;;;;;;15.85;8.57;;;;;;;;;;4995505;28;20066;-88
2022/06/04 11:10:38;;;;;;;17.15;7.88;;;;;;;;;;4999336;28;20064;-86
2022/06/04 11:13:12;;;;;;;15.30;8.07;;;;;;;;;;4995642;28;20034;-89
2022/06/04 11:15:43;;;;;;;12.25;7.82;;;;;;;;;;4985195;28;20023;-86
2022/06/04 11:18:15;;;;;;;9.55;6.93;;;;;;;;;;4992231;28;20081;-86
2022/06/04 11:21:00;;;;;;;15.80;8.07;;;;;;;;;;4984951;28;20054;-86
2022/06/04 11:23:36;;;;;;;15.40;8.35;;;;;;;;;;5015764;28;20280;-86
2022/06/04 11:26:05;;;;;;;16.75;9.20;;;;;;;;;;5000221;28;20484;-88
2022/06/04 11:28:31;;;;;;;12.77;8.40;;;;;;;;;;5010223;28;20420;-86
2022/06/04 11:31:03;;;;;;;13.35;7.65;;;;;;;;;;4986970;28;20105;-85
2022/06/04 11:33:32;;;;;;;15.85;8.20;;;;;;;;;;4991594;28;20130;-89
2022/06/04 11:36:01;;;;;;;14.63;8.23;;;;;;;;;;4993844;28;20117;-81
2022/06/04 11:38:46;;;;;;;12.05;8.25;;;;;;;;;;5007899;28;20018;-76
2022/06/04 11:41:18;;;;;;;20.00;9.25;;;;;;;;;;5001758;28;20026;-81
2022/06/04 11:44:01;;;;;;;18.50;8.87;;;;;;;;;;4997114;28;20045;-77
2022/06/04 11:46:34;;;;;;;10.57;7.07;;;;;;;;;;4986161;28;20035;-79
2022/06/04 11:49:00;;;;;;;10.82;6.72;;;;;;;;;;4984209;28;20069;-71
2022/06/04 11:51:27;;;;;;;15.82;7.10;;;;;;;;;;4981860;28;20123;-74
2022/06/04 11:54:25;;;;;;;18.48;6.75;;;;;;;;;;4991531;28;20038;-75
2022/06/04 11:57:03;;;;;;;14.88;7.18;;;;;;;;;;4951011;29;20047;-74
2022/06/04 11:59:48;;;;;;;12.45;7.95;;;;;;;;;;4957788;28;20054;-74
2022/06/04 12:02:19;;;;;;;15.68;6.57;;;;;;;;;;4948299;28;20227;-73
2022/06/04 12:04:57;;;;;;;28.13;8.50;;;;;;;;;;4943723;28;20035;-73
2022/06/04 12:07:34;;;;;;;15.25;7.78;;;;;;;;;;4947644;28;20039;-74
2022/06/04 12:10:05;;;;;;;19.58;12.05;;;;;;;;;;4955041;28;20033;-75
2022/06/04 12:12:38;;;;;;;11.93;8.18;;;;;;;;;;4958629;28;20429;-75
2022/06/04 12:15:27;;;;;;;19.35;10.30;;;;;;;;;;4947492;28;20035;-75
2022/06/04 12:17:56;;;;;;;15.20;8.35;;;;;;;;;;4897195;29;20515;-75
2022/06/04 12:26:23;;;;;;;12.13;6.90;;;;;;;;;;4897752;29;20071;-76
2022/06/04 12:28:50;;;;;;;9.98;5.97;;;;;;;;;;4897979;29;20499;-79
2022/06/04 12:31:30;;;;;;;14.05;6.63;;;;;;;;;;4898107;29;20052;-80
2022/06/04 12:33:56;;;;;;;24.92;7.30;;;;;;;;;;4898050;29;20040;-76
2022/06/04 12:36:24;;;;;;;13.60;6.20;;;;;;;;;;4909226;29;20087;-83
2022/06/04 12:38:58;;;;;;;15.95;5.82;;;;;;;;;;4878757;29;20127;-84
2022/06/04 12:41:24;;;;;;;14.18;5.50;;;;;;;;;;4896592;29;20041;-77
2022/06/04 12:43:58;;;;;;;18.35;6.07;;;;;;;;;;4896496;29;20097;-83
2022/06/04 12:46:24;;;;;;;11.32;5.75;;;;;;;;;;4902702;29;20028;-79
2022/06/04 12:49:02;;;;;;;17.02;5.80;;;;;;;;;;4896851;29;20059;-84
2022/06/04 12:51:48;;;;;;;10.73;5.60;;;;;;;;;;4899102;29;20029;-84
2022/06/04 12:54:23;;;;;;;13.10;5.60;;;;;;;;;;4905674;28;20050;-79
2022/06/04 12:57:03;;;;;;;13.35;6.50;;;;;;;;;;4986732;28;20019;-81
2022/06/04 12:59:38;;;;;;;11.48;5.68;;;;;;;;;;4975029;28;20133;-79
2022/06/04 13:02:23;;;;;;;17.52;7.25;;;;;;;;;;4996097;28;20084;-81
2022/06/04 13:04:49;;;;;;;12.75;6.15;;;;;;;;;;4982935;28;20034;-77
2022/06/04 13:07:26;;;;;;;17.48;6.70;;;;;;;;;;4985268;28;20026;-78
2022/06/04 13:09:58;;;;;;;17.65;6.80;;;;;;;;;;4991657;28;20058;-80
2022/06/04 13:12:35;;;;;;;13.90;6.18;;;;;;;;;;4985931;28;20045;-81
2022/06/04 13:15:20;;;;;;;15.30;5.78;;;;;;;;;;4998992;28;20036;-88
2022/06/04 13:17:48;;;;;;;17.33;6.80;;;;;;;;;;4981739;28;20169;-78
2022/06/04 13:20:14;;;;;;;20.55;6.68;;;;;;;;;;5006970;28;20526;-85
2022/06/04 13:22:50;;;;;;;15.70;6.47;;;;;;;;;;4995128;28;20439;-79
2022/06/04 13:25:18;;;;;;;12.82;6.32;;;;;;;;;;4995351;28;20047;-82
2022/06/04 13:27:53;;;;;;;18.10;6.13;;;;;;;;;;4978241;28;20205;-78
2022/06/04 13:30:21;;;;;;;14.30;6.55;;;;;;;;;;4993741;28;20029;-77
2022/06/04 13:32:47;;;;;;;14.18;7.10;;;;;;;;;;4984138;28;20129;-78
2022/06/04 13:35:18;;;;;;;18.58;6.90;;;;;;;;;;4998588;28;20033;-74
2022/06/04 13:37:45;;;;;;;12.55;6.28;;;;;;;;;;4981516;28;20052;-78
2022/06/04 13:40:15;;;;;;;10.95;6.40;;;;;;;;;;4995873;28;20029;-82
2022/06/04 13:42:42;;;;;;;18.10;6.38;;;;;;;;;;4997249;28;20026;-80
2022/06/04 13:45:08;;;;;;;15.00;6.30;;;;;;;;;;4981614;28;20391;-80
2022/06/04 13:47:36;;;;;;;12.15;5.90;;;;;;;;;;4992434;28;20027;-86
2022/06/04 13:50:05;;;;;;;13.35;6.22;;;;;;;;;;4985593;28;20042;-81
2022/06/04 13:52:42;;;;;;;8.95;7.00;;;;;;;;;;4988616;28;20525;-79
2022/06/04 13:55:12;;;;;;;9.40;6.25;;;;;;;;;;4987934;28;20026;-85
2022/06/04 13:57:43;;;;;;;14.38;6.60;;;;;;;;;;4998966;28;20026;-83
2022/06/04 14:00:24;;;;;;;11.35;6.63;;;;;;;;;;4993789;28;20026;-78
2022/06/04 14:02:54;;;;;;;16.35;7.63;;;;;;;;;;4982123;28;20023;-77
2022/06/04 14:08:08;;;;;;;20.20;11.45;;;;;;;;;;4986467;28;20093;-72
2022/06/04 14:10:35;;;;;;;13.15;7.47;;;;;;;;;;5004754;28;20109;-72
2022/06/04 14:13:07;;;;;;;12.07;7.60;;;;;;;;;;4985927;28;20084;-75
2022/06/04 14:15:45;;;;;;;11.90;7.82;;;;;;;;;;4990567;28;20026;-77
2022/06/04 14:18:11;;;;;;;20.23;11.82;;;;;;;;;;4998538;28;20040;-73
2022/06/04 14:20:37;;;;;;;26.85;18.27;;;;;;;;;;4994149;28;20092;-78
2022/06/04 14:23:07;;;;;;;15.85;9.60;;;;;;;;;;4993599;28;20077;-77
2022/06/04 14:25:52;;;;;;;14.85;8.50;;;;;;;;;;4989189;28;20515;-70
2022/06/04 14:28:29;;;;;;;11.27;7.30;;;;;;;;;;4986100;28;20475;-73
2022/06/04 14:31:14;;;;;;;16.13;8.85;;;;;;;;;;4988081;28;20392;-73
2022/06/04 14:33:40;;;;;;;13.68;7.28;;;;;;;;;;4988472;28;20081;-68
2022/06/04 14:36:08;;;;;;;13.35;6.85;;;;;;;;;;4995761;28;20090;-72
2022/06/04 14:38:38;;;;;;;16.48;7.32;;;;;;;;;;4993397;28;20026;-72
2022/06/04 14:41:04;;;;;;;13.60;6.53;;;;;;;;;;4992673;28;20029;-81
2022/06/04 14:43:46;;;;;;;16.98;6.95;;;;;;;;;;4994335;28;20503;-74
2022/06/04 14:46:22;;;;;;;9.52;5.47;;;;;;;;;;4990562;28;20096;-77
2022/06/04 14:48:56;;;;;;;12.00;7.85;;;;;;;;;;4987734;28;20047;-71
2022/06/04 14:51:24;;;;;;;12.88;8.02;;;;;;;;;;4988987;28;20034;-73
2022/06/04 14:53:50;;;;;;;12.57;5.68;;;;;;;;;;4991049;28;20042;-69
2022/06/04 14:56:23;;;;;;;11.82;5.32;;;;;;;;;;4992190;28;20482;-71
2022/06/04 14:59:04;;;;;;;15.48;7.03;;;;;;;;;;4996245;28;20032;-74
2022/06/04 15:01:30;;;;;;;73.05;9.63;;;;;;;;;;4992054;28;20104;-74
2022/06/04 15:04:15;;;;;;;16.08;6.18;;;;;;;;;;4992804;28;20023;-73
2022/06/04 15:07:11;;;;;;;9.95;5.32;;;;;;;;;;4977276;28;20034;-80
2022/06/04 15:09:55;;;;;;;11.30;5.22;;;;;;;;;;4952077;28;20050;-81
2022/06/04 15:12:34;;;;;;;19.25;6.10;;;;;;;;;;4952003;28;20031;-80
2022/06/04 15:15:03;;;;;;;9.98;5.60;;;;;;;;;;4949914;28;20027;-80
2022/06/04 15:17:49;;;;;;;12.93;5.38;;;;;;;;;;4942955;28;20031;-76
2022/06/04 15:20:16;;;;;;;16.40;6.22;;;;;;;;;;4947668;28;20077;-74